sensor_id;sensor_type;location;lat;lon;timestamp;P1;durP1;ratioP1;P2;durP2;ratioP2
59734;SDS011;64362;45.620;4.920;2023-09-07T00:00:14;3.08;;;2.22;;
59734;SDS011;64362;45.620;4.920;2023-09-07T00:02:40;3.92;;;2.30;;
59734;SDS011;64362;45.620;4.920;2023-09-07T00:05:05;3.05;;;2.10;;
59734;SDS011;64362;45.620;4.920;2023-09-07T00:07:32;3.40;;;2.20;;
59734;SDS011;64362;45.620;4.920;2023-09-07T00:09:57;2.95;;;2.10;;
59734;SDS011;64362;45.620;4.920;2023-09-07T00:12:23;3.50;;;2.38;;
59734;SDS011;64362;45.620;4.920;2023-09-07T00:14:48;4.25;;;2.45;;
59734;SDS011;64362;45.620;4.920;2023-09-07T00:17:14;3.17;;;2.10;;
59734;SDS011;64362;45.620;4.920;2023-09-07T00:19:39;3.97;;;2.30;;
59734;SDS011;64362;45.620;4.920;2023-09-07T00:22:05;3.40;;;2.03;;
59734;SDS011;64362;45.620;4.920;2023-09-07T00:24:30;3.88;;;1.90;;
59734;SDS011;64362;45.620;4.920;2023-09-07T00:26:58;3.17;;;2.38;;
59734;SDS011;64362;45.620;4.920;2023-09-07T00:29:24;3.42;;;1.95;;
59734;SDS011;64362;45.620;4.920;2023-09-07T00:31:49;2.92;;;2.33;;
59734;SDS011;64362;45.620;4.920;2023-09-07T00:34:15;2.97;;;2.17;;
59734;SDS011;64362;45.620;4.920;2023-09-07T00:36:40;2.83;;;2.10;;
59734;SDS011;64362;45.620;4.920;2023-09-07T00:39:06;2.95;;;2.22;;
59734;SDS011;64362;45.620;4.920;2023-09-07T00:41:31;3.28;;;2.25;;
59734;SDS011;64362;45.620;4.920;2023-09-07T00:43:57;2.55;;;2.10;;
59734;SDS011;64362;45.620;4.920;2023-09-07T00:46:22;4.15;;;2.40;;
59734;SDS011;64362;45.620;4.920;2023-09-07T00:48:48;3.38;;;2.30;;
59734;SDS011;64362;45.620;4.920;2023-09-07T00:51:14;3.22;;;2.00;;
59734;SDS011;64362;45.620;4.920;2023-09-07T00:53:40;3.53;;;1.98;;
59734;SDS011;64362;45.620;4.920;2023-09-07T00:56:06;3.03;;;2.22;;
59734;SDS011;64362;45.620;4.920;2023-09-07T00:58:32;2.75;;;2.05;;
59734;SDS011;64362;45.620;4.920;2023-09-07T01:00:59;3.30;;;2.40;;
59734;SDS011;64362;45.620;4.920;2023-09-07T01:03:24;3.60;;;2.10;;
59734;SDS011;64362;45.620;4.920;2023-09-07T01:05:51;3.08;;;1.90;;
59734;SDS011;64362;45.620;4.920;2023-09-07T01:08:24;3.22;;;1.85;;
59734;SDS011;64362;45.620;4.920;2023-09-07T01:10:51;2.95;;;2.35;;
59734;SDS011;64362;45.620;4.920;2023-09-07T01:13:17;3.30;;;2.13;;
59734;SDS011;64362;45.620;4.920;2023-09-07T01:15:44;2.97;;;2.30;;
59734;SDS011;64362;45.620;4.920;2023-09-07T01:18:09;3.42;;;2.40;;
59734;SDS011;64362;45.620;4.920;2023-09-07T01:20:35;3.85;;;2.10;;
59734;SDS011;64362;45.620;4.920;2023-09-07T01:23:02;3.55;;;2.00;;
59734;SDS011;64362;45.620;4.920;2023-09-07T01:25:28;4.07;;;2.28;;
59734;SDS011;64362;45.620;4.920;2023-09-07T01:27:54;3.13;;;2.40;;
59734;SDS011;64362;45.620;4.920;2023-09-07T01:30:20;3.17;;;2.25;;
59734;SDS011;64362;45.620;4.920;2023-09-07T01:32:45;2.85;;;2.05;;
59734;SDS011;64362;45.620;4.920;2023-09-07T01:35:11;3.30;;;2.13;;
59734;SDS011;64362;45.620;4.920;2023-09-07T01:37:38;3.08;;;2.10;;
59734;SDS011;64362;45.620;4.920;2023-09-07T01:40:03;2.67;;;1.95;;
59734;SDS011;64362;45.620;4.920;2023-09-07T01:42:33;4.13;;;2.25;;
59734;SDS011;64362;45.620;4.920;2023-09-07T01:44:58;3.03;;;2.10;;
59734;SDS011;64362;45.620;4.920;2023-09-07T01:47:24;3.10;;;2.00;;
59734;SDS011;64362;45.620;4.920;2023-09-07T01:49:49;2.80;;;2.10;;
59734;SDS011;64362;45.620;4.920;2023-09-07T01:52:15;3.50;;;2.13;;
59734;SDS011;64362;45.620;4.920;2023-09-07T01:54:40;2.85;;;2.10;;
59734;SDS011;64362;45.620;4.920;2023-09-07T01:57:06;4.88;;;2.03;;
59734;SDS011;64362;45.620;4.920;2023-09-07T01:59:31;1.55;;;1.35;;
59734;SDS011;64362;45.620;4.920;2023-09-07T02:01:57;3.30;;;2.03;;
59734;SDS011;64362;45.620;4.920;2023-09-07T02:04:22;3.75;;;2.13;;
59734;SDS011;64362;45.620;4.920;2023-09-07T02:06:48;3.13;;;1.80;;
59734;SDS011;64362;45.620;4.920;2023-09-07T02:09:13;4.03;;;1.80;;
59734;SDS011;64362;45.620;4.920;2023-09-07T02:11:39;2.70;;;2.03;;
59734;SDS011;64362;45.620;4.920;2023-09-07T02:14:05;2.72;;;1.88;;
59734;SDS011;64362;45.620;4.920;2023-09-07T02:16:31;4.07;;;2.28;;
59734;SDS011;64362;45.620;4.920;2023-09-07T02:19:00;2.78;;;1.80;;
59734;SDS011;64362;45.620;4.920;2023-09-07T02:21:26;3.75;;;2.22;;
59734;SDS011;64362;45.620;4.920;2023-09-07T02:23:51;3.20;;;1.60;;
59734;SDS011;64362;45.620;4.920;2023-09-07T02:26:19;3.08;;;2.13;;
59734;SDS011;64362;45.620;4.920;2023-09-07T02:28:44;3.95;;;2.33;;
59734;SDS011;64362;45.620;4.920;2023-09-07T02:31:10;3.92;;;2.45;;
59734;SDS011;64362;45.620;4.920;2023-09-07T02:33:35;3.40;;;2.28;;
59734;SDS011;64362;45.620;4.920;2023-09-07T02:36:01;2.72;;;1.95;;
59734;SDS011;64362;45.620;4.920;2023-09-07T02:38:26;3.25;;;2.05;;
59734;SDS011;64362;45.620;4.920;2023-09-07T02:40:52;2.85;;;1.75;;
59734;SDS011;64362;45.620;4.920;2023-09-07T02:43:18;2.42;;;1.60;;
59734;SDS011;64362;45.620;4.920;2023-09-07T02:45:44;3.17;;;1.80;;
59734;SDS011;64362;45.620;4.920;2023-09-07T02:48:09;2.75;;;2.17;;
59734;SDS011;64362;45.620;4.920;2023-09-07T02:50:37;3.67;;;1.95;;
59734;SDS011;64362;45.620;4.920;2023-09-07T02:53:02;2.83;;;2.15;;
59734;SDS011;64362;45.620;4.920;2023-09-07T02:55:30;2.97;;;1.92;;
59734;SDS011;64362;45.620;4.920;2023-09-07T02:57:56;2.25;;;1.60;;
59734;SDS011;64362;45.620;4.920;2023-09-07T03:00:22;2.97;;;1.90;;
59734;SDS011;64362;45.620;4.920;2023-09-07T03:02:48;2.47;;;1.60;;
59734;SDS011;64362;45.620;4.920;2023-09-07T03:05:17;4.28;;;2.15;;
59734;SDS011;64362;45.620;4.920;2023-09-07T03:07:44;2.50;;;1.60;;
59734;SDS011;64362;45.620;4.920;2023-09-07T03:10:10;3.75;;;1.83;;
59734;SDS011;64362;45.620;4.920;2023-09-07T03:12:36;3.03;;;1.50;;
59734;SDS011;64362;45.620;4.920;2023-09-07T03:15:02;3.08;;;1.92;;
59734;SDS011;64362;45.620;4.920;2023-09-07T03:17:29;2.97;;;1.88;;
59734;SDS011;64362;45.620;4.920;2023-09-07T03:19:54;3.47;;;1.90;;
59734;SDS011;64362;45.620;4.920;2023-09-07T03:22:20;3.47;;;2.28;;
59734;SDS011;64362;45.620;4.920;2023-09-07T03:24:47;4.32;;;2.10;;
59734;SDS011;64362;45.620;4.920;2023-09-07T03:27:12;2.92;;;1.95;;
59734;SDS011;64362;45.620;4.920;2023-09-07T03:29:38;2.60;;;1.90;;
59734;SDS011;64362;45.620;4.920;2023-09-07T03:32:04;2.42;;;2.03;;
59734;SDS011;64362;45.620;4.920;2023-09-07T03:34:31;3.17;;;2.03;;
59734;SDS011;64362;45.620;4.920;2023-09-07T03:36:56;3.20;;;1.98;;
59734;SDS011;64362;45.620;4.920;2023-09-07T03:39:22;3.40;;;2.00;;
59734;SDS011;64362;45.620;4.920;2023-09-07T03:41:48;2.95;;;1.80;;
59734;SDS011;64362;45.620;4.920;2023-09-07T03:44:14;3.05;;;1.83;;
59734;SDS011;64362;45.620;4.920;2023-09-07T03:46:39;3.28;;;1.98;;
59734;SDS011;64362;45.620;4.920;2023-09-07T03:49:05;3.03;;;2.13;;
59734;SDS011;64362;45.620;4.920;2023-09-07T03:51:31;3.67;;;2.45;;
59734;SDS011;64362;45.620;4.920;2023-09-07T03:53:56;3.05;;;2.10;;
59734;SDS011;64362;45.620;4.920;2023-09-07T03:56:22;4.35;;;2.35;;
59734;SDS011;64362;45.620;4.920;2023-09-07T03:58:48;3.30;;;1.80;;
59734;SDS011;64362;45.620;4.920;2023-09-07T04:01:14;3.20;;;2.08;;
59734;SDS011;64362;45.620;4.920;2023-09-07T04:03:39;2.70;;;2.00;;
59734;SDS011;64362;45.620;4.920;2023-09-07T04:06:08;3.55;;;2.03;;
59734;SDS011;64362;45.620;4.920;2023-09-07T04:08:33;3.33;;;2.10;;
59734;SDS011;64362;45.620;4.920;2023-09-07T04:11:02;3.15;;;1.90;;
59734;SDS011;64362;45.620;4.920;2023-09-07T04:13:28;2.38;;;1.70;;
59734;SDS011;64362;45.620;4.920;2023-09-07T04:15:54;3.35;;;1.90;;
59734;SDS011;64362;45.620;4.920;2023-09-07T04:18:19;3.58;;;2.10;;
59734;SDS011;64362;45.620;4.920;2023-09-07T04:20:45;3.00;;;2.15;;
59734;SDS011;64362;45.620;4.920;2023-09-07T04:23:11;3.50;;;2.33;;
59734;SDS011;64362;45.620;4.920;2023-09-07T04:25:37;4.00;;;1.90;;
59734;SDS011;64362;45.620;4.920;2023-09-07T04:28:04;4.07;;;2.00;;
59734;SDS011;64362;45.620;4.920;2023-09-07T04:30:31;2.88;;;1.95;;
59734;SDS011;64362;45.620;4.920;2023-09-07T04:32:57;3.10;;;1.80;;
59734;SDS011;64362;45.620;4.920;2023-09-07T04:35:29;3.72;;;2.00;;
59734;SDS011;64362;45.620;4.920;2023-09-07T04:37:58;2.90;;;1.90;;
59734;SDS011;64362;45.620;4.920;2023-09-07T04:40:24;2.42;;;1.75;;
59734;SDS011;64362;45.620;4.920;2023-09-07T04:42:50;2.20;;;1.60;;
59734;SDS011;64362;45.620;4.920;2023-09-07T04:45:16;2.80;;;1.90;;
59734;SDS011;64362;45.620;4.920;2023-09-07T04:47:43;2.85;;;1.95;;
59734;SDS011;64362;45.620;4.920;2023-09-07T04:50:08;2.65;;;1.75;;
59734;SDS011;64362;45.620;4.920;2023-09-07T04:52:34;2.92;;;2.08;;
59734;SDS011;64362;45.620;4.920;2023-09-07T04:55:00;3.85;;;1.90;;
59734;SDS011;64362;45.620;4.920;2023-09-07T04:57:26;2.70;;;1.65;;
59734;SDS011;64362;45.620;4.920;2023-09-07T04:59:52;2.20;;;1.40;;
59734;SDS011;64362;45.620;4.920;2023-09-07T05:02:18;2.20;;;1.40;;
59734;SDS011;64362;45.620;4.920;2023-09-07T05:04:43;3.45;;;1.58;;
59734;SDS011;64362;45.620;4.920;2023-09-07T05:07:09;2.47;;;1.75;;
59734;SDS011;64362;45.620;4.920;2023-09-07T05:09:35;2.47;;;1.63;;
59734;SDS011;64362;45.620;4.920;2023-09-07T05:12:01;3.05;;;1.80;;
59734;SDS011;64362;45.620;4.920;2023-09-07T05:14:26;2.88;;;1.70;;
59734;SDS011;64362;45.620;4.920;2023-09-07T05:16:52;2.45;;;1.58;;
59734;SDS011;64362;45.620;4.920;2023-09-07T05:19:18;2.33;;;1.65;;
59734;SDS011;64362;45.620;4.920;2023-09-07T05:21:44;2.35;;;1.65;;
59734;SDS011;64362;45.620;4.920;2023-09-07T05:24:12;2.97;;;1.80;;
59734;SDS011;64362;45.620;4.920;2023-09-07T05:26:38;4.88;;;1.67;;
59734;SDS011;64362;45.620;4.920;2023-09-07T05:29:05;2.97;;;1.75;;
59734;SDS011;64362;45.620;4.920;2023-09-07T05:31:30;2.88;;;2.00;;
59734;SDS011;64362;45.620;4.920;2023-09-07T05:33:56;2.65;;;1.80;;
59734;SDS011;64362;45.620;4.920;2023-09-07T05:36:21;2.63;;;1.63;;
59734;SDS011;64362;45.620;4.920;2023-09-07T05:38:47;2.72;;;1.90;;
59734;SDS011;64362;45.620;4.920;2023-09-07T05:41:12;2.47;;;1.80;;
59734;SDS011;64362;45.620;4.920;2023-09-07T05:43:38;2.50;;;1.80;;
59734;SDS011;64362;45.620;4.920;2023-09-07T05:46:04;2.50;;;1.52;;
59734;SDS011;64362;45.620;4.920;2023-09-07T05:48:29;2.47;;;1.63;;
59734;SDS011;64362;45.620;4.920;2023-09-07T05:50:55;2.60;;;1.67;;
59734;SDS011;64362;45.620;4.920;2023-09-07T05:53:21;3.00;;;1.80;;
59734;SDS011;64362;45.620;4.920;2023-09-07T05:55:46;2.85;;;1.50;;
59734;SDS011;64362;45.620;4.920;2023-09-07T05:58:12;2.22;;;1.60;;
59734;SDS011;64362;45.620;4.920;2023-09-07T06:00:41;2.75;;;1.75;;
59734;SDS011;64362;45.620;4.920;2023-09-07T06:03:07;3.75;;;2.05;;
59734;SDS011;64362;45.620;4.920;2023-09-07T06:05:34;2.38;;;1.70;;
59734;SDS011;64362;45.620;4.920;2023-09-07T06:08:01;2.92;;;1.60;;
59734;SDS011;64362;45.620;4.920;2023-09-07T06:10:29;2.90;;;1.73;;
59734;SDS011;64362;45.620;4.920;2023-09-07T06:12:56;3.03;;;1.98;;
59734;SDS011;64362;45.620;4.920;2023-09-07T06:15:22;3.30;;;1.67;;
59734;SDS011;64362;45.620;4.920;2023-09-07T06:17:47;2.50;;;1.80;;
59734;SDS011;64362;45.620;4.920;2023-09-07T06:20:13;4.28;;;2.17;;
59734;SDS011;64362;45.620;4.920;2023-09-07T06:22:39;3.30;;;2.13;;
59734;SDS011;64362;45.620;4.920;2023-09-07T06:25:04;3.58;;;2.20;;
59734;SDS011;64362;45.620;4.920;2023-09-07T06:27:30;3.08;;;1.90;;
59734;SDS011;64362;45.620;4.920;2023-09-07T06:29:55;2.72;;;1.73;;
59734;SDS011;64362;45.620;4.920;2023-09-07T06:32:21;3.80;;;1.88;;
59734;SDS011;64362;45.620;4.920;2023-09-07T06:34:47;3.40;;;1.90;;
59734;SDS011;64362;45.620;4.920;2023-09-07T06:37:13;2.67;;;1.65;;
59734;SDS011;64362;45.620;4.920;2023-09-07T06:39:39;3.13;;;2.13;;
59734;SDS011;64362;45.620;4.920;2023-09-07T06:42:04;3.47;;;2.00;;
59734;SDS011;64362;45.620;4.920;2023-09-07T06:44:37;3.13;;;1.85;;
59734;SDS011;64362;45.620;4.920;2023-09-07T06:47:03;3.28;;;1.77;;
59734;SDS011;64362;45.620;4.920;2023-09-07T06:49:28;3.72;;;2.03;;
59734;SDS011;64362;45.620;4.920;2023-09-07T06:51:56;3.50;;;1.63;;
59734;SDS011;64362;45.620;4.920;2023-09-07T06:54:21;2.42;;;1.70;;
59734;SDS011;64362;45.620;4.920;2023-09-07T06:56:47;4.68;;;2.20;;
59734;SDS011;64362;45.620;4.920;2023-09-07T06:59:13;3.88;;;2.17;;
59734;SDS011;64362;45.620;4.920;2023-09-07T07:01:39;3.03;;;1.95;;
59734;SDS011;64362;45.620;4.920;2023-09-07T07:04:04;2.97;;;2.10;;
59734;SDS011;64362;45.620;4.920;2023-09-07T07:06:30;4.38;;;2.30;;
59734;SDS011;64362;45.620;4.920;2023-09-07T07:08:56;3.30;;;1.63;;
59734;SDS011;64362;45.620;4.920;2023-09-07T07:11:21;3.72;;;2.10;;
59734;SDS011;64362;45.620;4.920;2023-09-07T07:13:47;2.65;;;1.85;;
59734;SDS011;64362;45.620;4.920;2023-09-07T07:16:12;4.93;;;2.13;;
59734;SDS011;64362;45.620;4.920;2023-09-07T07:18:39;2.78;;;1.70;;
59734;SDS011;64362;45.620;4.920;2023-09-07T07:21:05;2.80;;;1.80;;
59734;SDS011;64362;45.620;4.920;2023-09-07T07:23:31;2.85;;;1.90;;
59734;SDS011;64362;45.620;4.920;2023-09-07T07:25:57;4.43;;;2.22;;
59734;SDS011;64362;45.620;4.920;2023-09-07T07:28:24;3.10;;;1.90;;
59734;SDS011;64362;45.620;4.920;2023-09-07T07:30:49;3.60;;;2.45;;
59734;SDS011;64362;45.620;4.920;2023-09-07T07:33:17;3.75;;;2.13;;
59734;SDS011;64362;45.620;4.920;2023-09-07T07:35:43;2.97;;;1.70;;
59734;SDS011;64362;45.620;4.920;2023-09-07T07:38:08;2.72;;;1.98;;
59734;SDS011;64362;45.620;4.920;2023-09-07T07:40:35;3.28;;;1.85;;
59734;SDS011;64362;45.620;4.920;2023-09-07T07:43:01;2.30;;;1.80;;
59734;SDS011;64362;45.620;4.920;2023-09-07T07:45:28;2.25;;;1.40;;
59734;SDS011;64362;45.620;4.920;2023-09-07T07:47:54;3.30;;;1.98;;
59734;SDS011;64362;45.620;4.920;2023-09-07T07:50:19;2.88;;;1.90;;
59734;SDS011;64362;45.620;4.920;2023-09-07T07:52:46;3.53;;;1.92;;
59734;SDS011;64362;45.620;4.920;2023-09-07T07:55:12;3.40;;;1.77;;
59734;SDS011;64362;45.620;4.920;2023-09-07T07:57:39;3.22;;;2.03;;
59734;SDS011;64362;45.620;4.920;2023-09-07T08:00:05;3.53;;;2.53;;
59734;SDS011;64362;45.620;4.920;2023-09-07T08:02:39;3.58;;;2.30;;
59734;SDS011;64362;45.620;4.920;2023-09-07T08:05:05;2.83;;;2.08;;
59734;SDS011;64362;45.620;4.920;2023-09-07T08:07:31;3.38;;;2.40;;
59734;SDS011;64362;45.620;4.920;2023-09-07T08:09:56;4.30;;;2.90;;
59734;SDS011;64362;45.620;4.920;2023-09-07T08:12:22;4.72;;;2.90;;
59734;SDS011;64362;45.620;4.920;2023-09-07T08:14:48;3.08;;;2.10;;
59734;SDS011;64362;45.620;4.920;2023-09-07T08:17:13;2.92;;;2.20;;
59734;SDS011;64362;45.620;4.920;2023-09-07T08:19:39;3.58;;;2.42;;
59734;SDS011;64362;45.620;4.920;2023-09-07T08:22:04;3.13;;;2.33;;
59734;SDS011;64362;45.620;4.920;2023-09-07T08:24:31;3.50;;;2.40;;
59734;SDS011;64362;45.620;4.920;2023-09-07T08:26:58;5.30;;;2.83;;
59734;SDS011;64362;45.620;4.920;2023-09-07T08:29:26;3.35;;;2.60;;
59734;SDS011;64362;45.620;4.920;2023-09-07T08:31:54;3.67;;;2.53;;
59734;SDS011;64362;45.620;4.920;2023-09-07T08:34:20;4.13;;;2.38;;
59734;SDS011;64362;45.620;4.920;2023-09-07T08:36:47;3.25;;;2.33;;
59734;SDS011;64362;45.620;4.920;2023-09-07T08:39:15;5.28;;;2.60;;
59734;SDS011;64362;45.620;4.920;2023-09-07T08:41:41;3.05;;;2.08;;
59734;SDS011;64362;45.620;4.920;2023-09-07T08:44:12;4.20;;;3.20;;
59734;SDS011;64362;45.620;4.920;2023-09-07T08:46:44;4.78;;;2.78;;
59734;SDS011;64362;45.620;4.920;2023-09-07T08:49:10;3.60;;;2.60;;
59734;SDS011;64362;45.620;4.920;2023-09-07T08:51:36;3.47;;;2.50;;
59734;SDS011;64362;45.620;4.920;2023-09-07T08:54:03;2.80;;;2.28;;
59734;SDS011;64362;45.620;4.920;2023-09-07T08:56:29;3.42;;;2.20;;
59734;SDS011;64362;45.620;4.920;2023-09-07T08:58:54;4.22;;;2.53;;
59734;SDS011;64362;45.620;4.920;2023-09-07T09:01:20;4.78;;;2.35;;
59734;SDS011;64362;45.620;4.920;2023-09-07T09:03:49;3.30;;;2.03;;
59734;SDS011;64362;45.620;4.920;2023-09-07T09:06:16;3.90;;;2.60;;
59734;SDS011;64362;45.620;4.920;2023-09-07T09:11:15;2.90;;;2.25;;
59734;SDS011;64362;45.620;4.920;2023-09-07T09:13:42;3.05;;;1.90;;
59734;SDS011;64362;45.620;4.920;2023-09-07T09:16:07;3.03;;;2.17;;
59734;SDS011;64362;45.620;4.920;2023-09-07T09:18:33;2.88;;;2.50;;
59734;SDS011;64362;45.620;4.920;2023-09-07T09:20:59;3.78;;;2.63;;
59734;SDS011;64362;45.620;4.920;2023-09-07T09:23:34;2.50;;;1.90;;
59734;SDS011;64362;45.620;4.920;2023-09-07T09:26:01;4.53;;;2.70;;
59734;SDS011;64362;45.620;4.920;2023-09-07T09:28:28;2.83;;;2.17;;
59734;SDS011;64362;45.620;4.920;2023-09-07T09:30:59;3.00;;;2.33;;
59734;SDS011;64362;45.620;4.920;2023-09-07T09:33:26;2.95;;;2.10;;
59734;SDS011;64362;45.620;4.920;2023-09-07T09:35:53;2.83;;;2.15;;
59734;SDS011;64362;45.620;4.920;2023-09-07T09:38:19;4.20;;;2.50;;
59734;SDS011;64362;45.620;4.920;2023-09-07T09:40:45;4.63;;;2.45;;
59734;SDS011;64362;45.620;4.920;2023-09-07T09:43:10;4.20;;;2.08;;
59734;SDS011;64362;45.620;4.920;2023-09-07T09:45:36;3.83;;;2.28;;
59734;SDS011;64362;45.620;4.920;2023-09-07T09:48:02;3.65;;;2.60;;
59734;SDS011;64362;45.620;4.920;2023-09-07T09:50:28;3.40;;;2.50;;
59734;SDS011;64362;45.620;4.920;2023-09-07T09:52:54;3.38;;;2.60;;
59734;SDS011;64362;45.620;4.920;2023-09-07T09:55:20;4.15;;;2.40;;
59734;SDS011;64362;45.620;4.920;2023-09-07T09:57:47;2.92;;;2.00;;
59734;SDS011;64362;45.620;4.920;2023-09-07T10:00:12;3.38;;;2.30;;
59734;SDS011;64362;45.620;4.920;2023-09-07T10:03:09;3.60;;;2.72;;
59734;SDS011;64362;45.620;4.920;2023-09-07T10:05:37;4.47;;;2.38;;
59734;SDS011;64362;45.620;4.920;2023-09-07T10:08:08;4.13;;;2.45;;
59734;SDS011;64362;45.620;4.920;2023-09-07T10:10:36;7.35;;;2.22;;
59734;SDS011;64362;45.620;4.920;2023-09-07T10:13:03;4.53;;;2.63;;
59734;SDS011;64362;45.620;4.920;2023-09-07T10:15:29;2.88;;;2.10;;
59734;SDS011;64362;45.620;4.920;2023-09-07T10:20:49;2.75;;;2.25;;
59734;SDS011;64362;45.620;4.920;2023-09-07T10:23:15;3.15;;;2.30;;
59734;SDS011;64362;45.620;4.920;2023-09-07T10:25:41;4.55;;;2.45;;
59734;SDS011;64362;45.620;4.920;2023-09-07T10:28:17;3.20;;;2.40;;
59734;SDS011;64362;45.620;4.920;2023-09-07T10:31:05;3.70;;;2.20;;
59734;SDS011;64362;45.620;4.920;2023-09-07T10:33:32;3.70;;;2.72;;
59734;SDS011;64362;45.620;4.920;2023-09-07T10:35:58;3.88;;;2.53;;
59734;SDS011;64362;45.620;4.920;2023-09-07T10:38:24;2.80;;;2.33;;
59734;SDS011;64362;45.620;4.920;2023-09-07T10:40:57;4.05;;;2.50;;
59734;SDS011;64362;45.620;4.920;2023-09-07T10:43:27;3.72;;;2.40;;
59734;SDS011;64362;45.620;4.920;2023-09-07T10:45:54;3.83;;;2.40;;
59734;SDS011;64362;45.620;4.920;2023-09-07T10:48:22;3.67;;;2.45;;
59734;SDS011;64362;45.620;4.920;2023-09-07T10:50:48;4.07;;;2.17;;
59734;SDS011;64362;45.620;4.920;2023-09-07T10:53:13;3.35;;;2.35;;
59734;SDS011;64362;45.620;4.920;2023-09-07T10:55:40;3.50;;;2.70;;
59734;SDS011;64362;45.620;4.920;2023-09-07T10:58:06;2.97;;;2.13;;
59734;SDS011;64362;45.620;4.920;2023-09-07T11:00:34;3.03;;;2.38;;
59734;SDS011;64362;45.620;4.920;2023-09-07T11:03:06;4.03;;;2.28;;
59734;SDS011;64362;45.620;4.920;2023-09-07T11:05:32;3.53;;;2.33;;
59734;SDS011;64362;45.620;4.920;2023-09-07T11:08:01;3.53;;;2.40;;
59734;SDS011;64362;45.620;4.920;2023-09-07T11:10:26;3.80;;;2.70;;
59734;SDS011;64362;45.620;4.920;2023-09-07T11:12:52;4.68;;;3.47;;
59734;SDS011;64362;45.620;4.920;2023-09-07T11:15:18;4.10;;;2.97;;
59734;SDS011;64362;45.620;4.920;2023-09-07T11:17:44;4.78;;;3.10;;
59734;SDS011;64362;45.620;4.920;2023-09-07T11:20:09;3.88;;;3.17;;
59734;SDS011;64362;45.620;4.920;2023-09-07T11:22:35;4.90;;;3.67;;
59734;SDS011;64362;45.620;4.920;2023-09-07T11:25:04;5.28;;;3.90;;
59734;SDS011;64362;45.620;4.920;2023-09-07T11:27:31;4.47;;;3.78;;
59734;SDS011;64362;45.620;4.920;2023-09-07T11:29:57;5.63;;;4.25;;
59734;SDS011;64362;45.620;4.920;2023-09-07T11:32:22;5.18;;;3.63;;
59734;SDS011;64362;45.620;4.920;2023-09-07T11:34:52;5.18;;;4.00;;
59734;SDS011;64362;45.620;4.920;2023-09-07T11:37:18;5.88;;;4.03;;
59734;SDS011;64362;45.620;4.920;2023-09-07T11:39:47;5.20;;;4.00;;
59734;SDS011;64362;45.620;4.920;2023-09-07T11:42:13;4.80;;;4.30;;
59734;SDS011;64362;45.620;4.920;2023-09-07T11:44:38;5.47;;;4.63;;
59734;SDS011;64362;45.620;4.920;2023-09-07T11:47:04;6.70;;;4.88;;
59734;SDS011;64362;45.620;4.920;2023-09-07T11:49:29;5.82;;;4.70;;
59734;SDS011;64362;45.620;4.920;2023-09-07T11:51:57;5.20;;;4.38;;
59734;SDS011;64362;45.620;4.920;2023-09-07T11:54:22;6.47;;;5.10;;
59734;SDS011;64362;45.620;4.920;2023-09-07T11:56:48;6.30;;;5.07;;
59734;SDS011;64362;45.620;4.920;2023-09-07T11:59:13;5.97;;;5.07;;
59734;SDS011;64362;45.620;4.920;2023-09-07T12:01:40;6.07;;;5.13;;
59734;SDS011;64362;45.620;4.920;2023-09-07T12:04:06;6.10;;;5.28;;
59734;SDS011;64362;45.620;4.920;2023-09-07T12:06:32;6.43;;;4.95;;
59734;SDS011;64362;45.620;4.920;2023-09-07T12:09:01;7.18;;;5.20;;
59734;SDS011;64362;45.620;4.920;2023-09-07T12:11:30;5.93;;;4.97;;
59734;SDS011;64362;45.620;4.920;2023-09-07T12:13:56;6.93;;;4.72;;
59734;SDS011;64362;45.620;4.920;2023-09-07T12:16:22;7.05;;;5.20;;
59734;SDS011;64362;45.620;4.920;2023-09-07T12:18:47;7.60;;;5.60;;
59734;SDS011;64362;45.620;4.920;2023-09-07T12:21:13;6.60;;;5.40;;
59734;SDS011;64362;45.620;4.920;2023-09-07T12:23:38;6.18;;;5.15;;
59734;SDS011;64362;45.620;4.920;2023-09-07T12:26:04;8.07;;;5.72;;
59734;SDS011;64362;45.620;4.920;2023-09-07T12:28:30;6.60;;;5.05;;
59734;SDS011;64362;45.620;4.920;2023-09-07T12:30:56;7.15;;;5.05;;
59734;SDS011;64362;45.620;4.920;2023-09-07T12:33:23;6.85;;;5.55;;
59734;SDS011;64362;45.620;4.920;2023-09-07T12:35:49;5.13;;;4.63;;
59734;SDS011;64362;45.620;4.920;2023-09-07T12:38:14;5.75;;;4.78;;
59734;SDS011;64362;45.620;4.920;2023-09-07T12:40:43;6.47;;;5.25;;
59734;SDS011;64362;45.620;4.920;2023-09-07T12:43:09;5.97;;;5.38;;
59734;SDS011;64362;45.620;4.920;2023-09-07T12:45:35;6.20;;;5.00;;
59734;SDS011;64362;45.620;4.920;2023-09-07T12:48:00;6.40;;;5.30;;
59734;SDS011;64362;45.620;4.920;2023-09-07T12:50:26;6.82;;;5.05;;
59734;SDS011;64362;45.620;4.920;2023-09-07T12:52:52;6.50;;;4.55;;
59734;SDS011;64362;45.620;4.920;2023-09-07T12:55:19;6.88;;;4.65;;
59734;SDS011;64362;45.620;4.920;2023-09-07T12:57:44;5.05;;;4.50;;
59734;SDS011;64362;45.620;4.920;2023-09-07T13:00:10;6.22;;;4.88;;
59734;SDS011;64362;45.620;4.920;2023-09-07T13:02:36;6.05;;;4.90;;
59734;SDS011;64362;45.620;4.920;2023-09-07T13:05:02;6.35;;;4.57;;
59734;SDS011;64362;45.620;4.920;2023-09-07T13:07:30;6.80;;;5.00;;
59734;SDS011;64362;45.620;4.920;2023-09-07T13:09:57;6.05;;;4.57;;
59734;SDS011;64362;45.620;4.920;2023-09-07T13:12:23;5.43;;;4.90;;
59734;SDS011;64362;45.620;4.920;2023-09-07T13:14:48;7.35;;;4.30;;
59734;SDS011;64362;45.620;4.920;2023-09-07T13:17:14;8.40;;;5.85;;
59734;SDS011;64362;45.620;4.920;2023-09-07T13:19:40;6.63;;;4.95;;
59734;SDS011;64362;45.620;4.920;2023-09-07T13:22:05;6.00;;;4.38;;
59734;SDS011;64362;45.620;4.920;2023-09-07T13:24:32;5.75;;;4.22;;
59734;SDS011;64362;45.620;4.920;2023-09-07T13:29:47;6.25;;;4.55;;
59734;SDS011;64362;45.620;4.920;2023-09-07T13:32:12;5.40;;;4.53;;
59734;SDS011;64362;45.620;4.920;2023-09-07T13:34:38;5.55;;;4.22;;
59734;SDS011;64362;45.620;4.920;2023-09-07T13:37:03;5.32;;;4.20;;
59734;SDS011;64362;45.620;4.920;2023-09-07T13:39:29;5.57;;;4.57;;
59734;SDS011;64362;45.620;4.920;2023-09-07T13:41:54;5.43;;;4.68;;
59734;SDS011;64362;45.620;4.920;2023-09-07T13:44:20;6.82;;;4.20;;
59734;SDS011;64362;45.620;4.920;2023-09-07T13:46:45;7.25;;;4.53;;
59734;SDS011;64362;45.620;4.920;2023-09-07T13:49:11;8.05;;;4.47;;
59734;SDS011;64362;45.620;4.920;2023-09-07T13:51:37;6.30;;;4.47;;
59734;SDS011;64362;45.620;4.920;2023-09-07T13:54:06;6.35;;;4.07;;
59734;SDS011;64362;45.620;4.920;2023-09-07T13:56:33;4.40;;;3.83;;
59734;SDS011;64362;45.620;4.920;2023-09-07T13:58:59;7.35;;;4.88;;
59734;SDS011;64362;45.620;4.920;2023-09-07T14:01:24;6.90;;;4.60;;
59734;SDS011;64362;45.620;4.920;2023-09-07T14:03:50;5.43;;;4.35;;
59734;SDS011;64362;45.620;4.920;2023-09-07T14:06:16;5.68;;;4.40;;
59734;SDS011;64362;45.620;4.920;2023-09-07T14:08:43;4.63;;;3.83;;
59734;SDS011;64362;45.620;4.920;2023-09-07T14:11:09;5.38;;;3.90;;
59734;SDS011;64362;45.620;4.920;2023-09-07T14:13:35;5.93;;;4.15;;
59734;SDS011;64362;45.620;4.920;2023-09-07T14:16:00;5.63;;;3.97;;
59734;SDS011;64362;45.620;4.920;2023-09-07T14:18:26;5.32;;;4.10;;
59734;SDS011;64362;45.620;4.920;2023-09-07T14:20:52;5.75;;;4.43;;
59734;SDS011;64362;45.620;4.920;2023-09-07T14:23:17;7.53;;;4.75;;
59734;SDS011;64362;45.620;4.920;2023-09-07T14:25:46;4.80;;;3.63;;
59734;SDS011;64362;45.620;4.920;2023-09-07T14:28:12;5.70;;;4.15;;
59734;SDS011;64362;45.620;4.920;2023-09-07T14:30:38;5.05;;;4.30;;
59734;SDS011;64362;45.620;4.920;2023-09-07T14:33:04;5.82;;;4.53;;
59734;SDS011;64362;45.620;4.920;2023-09-07T14:35:30;5.10;;;4.20;;
59734;SDS011;64362;45.620;4.920;2023-09-07T14:37:55;4.72;;;4.10;;
59734;SDS011;64362;45.620;4.920;2023-09-07T14:40:21;5.85;;;4.25;;
59734;SDS011;64362;45.620;4.920;2023-09-07T14:42:49;4.55;;;3.78;;
59734;SDS011;64362;45.620;4.920;2023-09-07T14:45:15;5.50;;;4.40;;
59734;SDS011;64362;45.620;4.920;2023-09-07T14:47:41;5.47;;;4.15;;
59734;SDS011;64362;45.620;4.920;2023-09-07T14:50:07;4.97;;;4.47;;